sensor_id;sensor_type;location;lat;lon;timestamp;temperature;humidity
55634;DHT22;41504;53.162;6.788;2023-08-24T00:00:09;17.50;90.10
55634;DHT22;41504;53.162;6.788;2023-08-24T00:02:35;17.50;90.10
55634;DHT22;41504;53.162;6.788;2023-08-24T00:05:07;17.50;90.10
55634;DHT22;41504;53.162;6.788;2023-08-24T00:07:33;17.40;90.10
55634;DHT22;41504;53.162;6.788;2023-08-24T00:09:59;17.40;90.20
55634;DHT22;41504;53.162;6.788;2023-08-24T00:12:24;17.40;90.20
55634;DHT22;41504;53.162;6.788;2023-08-24T00:14:51;17.30;90.20
55634;DHT22;41504;53.162;6.788;2023-08-24T00:17:17;17.30;90.30
55634;DHT22;41504;53.162;6.788;2023-08-24T00:19:43;17.30;90.40
55634;DHT22;41504;53.162;6.788;2023-08-24T00:22:08;17.30;90.40
55634;DHT22;41504;53.162;6.788;2023-08-24T00:24:34;17.30;90.30
55634;DHT22;41504;53.162;6.788;2023-08-24T00:27:00;17.30;90.20
55634;DHT22;41504;53.162;6.788;2023-08-24T00:29:26;17.20;90.20
55634;DHT22;41504;53.162;6.788;2023-08-24T00:31:51;17.20;90.20
55634;DHT22;41504;53.162;6.788;2023-08-24T00:34:17;17.20;90.30
55634;DHT22;41504;53.162;6.788;2023-08-24T00:36:43;17.10;90.30
55634;DHT22;41504;53.162;6.788;2023-08-24T00:39:08;17.10;90.30
55634;DHT22;41504;53.162;6.788;2023-08-24T00:41:34;17.10;90.30
55634;DHT22;41504;53.162;6.788;2023-08-24T00:44:00;17.10;90.40
55634;DHT22;41504;53.162;6.788;2023-08-24T00:46:26;17.10;90.40
55634;DHT22;41504;53.162;6.788;2023-08-24T00:48:54;17.10;90.50
55634;DHT22;41504;53.162;6.788;2023-08-24T00:51:23;17.10;90.60
55634;DHT22;41504;53.162;6.788;2023-08-24T00:53:52;17.00;90.60
55634;DHT22;41504;53.162;6.788;2023-08-24T00:58:52;17.00;90.70
55634;DHT22;41504;53.162;6.788;2023-08-24T01:01:19;17.00;90.70
55634;DHT22;41504;53.162;6.788;2023-08-24T01:03:45;17.00;90.70
55634;DHT22;41504;53.162;6.788;2023-08-24T01:06:11;17.00;90.70
55634;DHT22;41504;53.162;6.788;2023-08-24T01:08:40;17.00;90.80
55634;DHT22;41504;53.162;6.788;2023-08-24T01:14:36;17.00;90.70
55634;DHT22;41504;53.162;6.788;2023-08-24T01:17:05;17.00;90.70
55634;DHT22;41504;53.162;6.788;2023-08-24T01:19:38;17.00;90.80
55634;DHT22;41504;53.162;6.788;2023-08-24T01:22:15;17.00;90.80
55634;DHT22;41504;53.162;6.788;2023-08-24T01:24:54;17.00;90.80
55634;DHT22;41504;53.162;6.788;2023-08-24T01:27:22;17.00;90.80
55634;DHT22;41504;53.162;6.788;2023-08-24T01:29:49;17.00;90.90
55634;DHT22;41504;53.162;6.788;2023-08-24T01:32:15;17.00;90.90
55634;DHT22;41504;53.162;6.788;2023-08-24T01:34:41;17.00;90.90
55634;DHT22;41504;53.162;6.788;2023-08-24T01:37:07;17.00;90.90
55634;DHT22;41504;53.162;6.788;2023-08-24T01:42:26;17.00;91.00
55634;DHT22;41504;53.162;6.788;2023-08-24T01:44:56;17.00;91.10
55634;DHT22;41504;53.162;6.788;2023-08-24T01:47:27;17.00;91.10
55634;DHT22;41504;53.162;6.788;2023-08-24T01:49:54;17.00;91.10
55634;DHT22;41504;53.162;6.788;2023-08-24T01:52:20;17.00;91.20
55634;DHT22;41504;53.162;6.788;2023-08-24T01:54:47;17.10;91.20
55634;DHT22;41504;53.162;6.788;2023-08-24T01:57:13;17.00;91.20
55634;DHT22;41504;53.162;6.788;2023-08-24T01:59:39;17.00;91.20
55634;DHT22;41504;53.162;6.788;2023-08-24T02:02:05;17.00;91.20
55634;DHT22;41504;53.162;6.788;2023-08-24T02:04:30;17.00;91.20
55634;DHT22;41504;53.162;6.788;2023-08-24T02:06:56;17.00;91.30
55634;DHT22;41504;53.162;6.788;2023-08-24T02:09:22;17.00;91.30
55634;DHT22;41504;53.162;6.788;2023-08-24T02:11:47;17.00;91.40
55634;DHT22;41504;53.162;6.788;2023-08-24T02:14:13;17.00;91.50
55634;DHT22;41504;53.162;6.788;2023-08-24T02:16:39;17.00;91.50
55634;DHT22;41504;53.162;6.788;2023-08-24T02:19:07;17.00;91.50
55634;DHT22;41504;53.162;6.788;2023-08-24T02:21:35;17.00;91.60
55634;DHT22;41504;53.162;6.788;2023-08-24T02:24:05;17.00;91.60
55634;DHT22;41504;53.162;6.788;2023-08-24T02:26:33;17.00;91.60
55634;DHT22;41504;53.162;6.788;2023-08-24T02:28:59;17.00;91.60
55634;DHT22;41504;53.162;6.788;2023-08-24T02:31:25;16.90;91.60
55634;DHT22;41504;53.162;6.788;2023-08-24T02:33:50;17.00;91.70
55634;DHT22;41504;53.162;6.788;2023-08-24T02:36:19;17.00;91.70
55634;DHT22;41504;53.162;6.788;2023-08-24T02:38:45;17.00;91.80
55634;DHT22;41504;53.162;6.788;2023-08-24T02:41:11;17.00;91.80
55634;DHT22;41504;53.162;6.788;2023-08-24T02:43:40;16.90;91.70
55634;DHT22;41504;53.162;6.788;2023-08-24T02:46:07;16.90;91.80
55634;DHT22;41504;53.162;6.788;2023-08-24T02:48:34;17.00;91.90
55634;DHT22;41504;53.162;6.788;2023-08-24T02:51:01;17.00;91.90
55634;DHT22;41504;53.162;6.788;2023-08-24T02:53:28;17.00;91.90
55634;DHT22;41504;53.162;6.788;2023-08-24T02:55:58;17.00;92.00
55634;DHT22;41504;53.162;6.788;2023-08-24T02:58:23;17.00;92.00
55634;DHT22;41504;53.162;6.788;2023-08-24T03:00:49;17.00;92.00
55634;DHT22;41504;53.162;6.788;2023-08-24T03:03:15;17.00;92.00
55634;DHT22;41504;53.162;6.788;2023-08-24T03:05:41;17.00;92.00
55634;DHT22;41504;53.162;6.788;2023-08-24T03:08:16;17.00;92.00
55634;DHT22;41504;53.162;6.788;2023-08-24T03:10:45;17.00;92.10
55634;DHT22;41504;53.162;6.788;2023-08-24T03:13:11;17.00;92.00
55634;DHT22;41504;53.162;6.788;2023-08-24T03:15:39;17.00;92.10
55634;DHT22;41504;53.162;6.788;2023-08-24T03:18:05;16.90;92.10
55634;DHT22;41504;53.162;6.788;2023-08-24T03:20:31;16.90;92.20
55634;DHT22;41504;53.162;6.788;2023-08-24T03:22:57;16.90;92.20
55634;DHT22;41504;53.162;6.788;2023-08-24T03:25:23;16.90;92.20
55634;DHT22;41504;53.162;6.788;2023-08-24T03:27:49;16.90;92.30
55634;DHT22;41504;53.162;6.788;2023-08-24T03:30:16;16.90;92.30
55634;DHT22;41504;53.162;6.788;2023-08-24T03:32:41;16.90;92.40
55634;DHT22;41504;53.162;6.788;2023-08-24T03:35:08;16.90;92.40
55634;DHT22;41504;53.162;6.788;2023-08-24T03:37:34;16.90;92.40
55634;DHT22;41504;53.162;6.788;2023-08-24T03:39:59;16.80;92.40
55634;DHT22;41504;53.162;6.788;2023-08-24T03:42:25;16.80;92.50
55634;DHT22;41504;53.162;6.788;2023-08-24T03:44:51;16.80;92.50
55634;DHT22;41504;53.162;6.788;2023-08-24T03:47:16;16.80;92.60
55634;DHT22;41504;53.162;6.788;2023-08-24T03:49:43;16.80;92.60
55634;DHT22;41504;53.162;6.788;2023-08-24T03:52:09;16.80;92.60
55634;DHT22;41504;53.162;6.788;2023-08-24T03:54:35;16.80;92.70
55634;DHT22;41504;53.162;6.788;2023-08-24T03:57:01;16.80;92.70
55634;DHT22;41504;53.162;6.788;2023-08-24T03:59:27;16.80;92.80
55634;DHT22;41504;53.162;6.788;2023-08-24T04:01:53;16.80;92.80
55634;DHT22;41504;53.162;6.788;2023-08-24T04:04:19;16.80;92.80
55634;DHT22;41504;53.162;6.788;2023-08-24T04:06:44;16.80;92.80
55634;DHT22;41504;53.162;6.788;2023-08-24T04:09:10;16.80;92.80
55634;DHT22;41504;53.162;6.788;2023-08-24T04:11:39;16.90;92.90
55634;DHT22;41504;53.162;6.788;2023-08-24T04:14:07;16.90;92.90
55634;DHT22;41504;53.162;6.788;2023-08-24T04:16:33;16.90;92.90
55634;DHT22;41504;53.162;6.788;2023-08-24T04:18:59;16.90;92.90
55634;DHT22;41504;53.162;6.788;2023-08-24T04:21:24;16.90;92.90
55634;DHT22;41504;53.162;6.788;2023-08-24T04:23:50;16.90;92.90
55634;DHT22;41504;53.162;6.788;2023-08-24T04:26:16;16.80;92.80
55634;DHT22;41504;53.162;6.788;2023-08-24T04:28:41;16.80;92.90
55634;DHT22;41504;53.162;6.788;2023-08-24T04:31:08;16.80;93.00
55634;DHT22;41504;53.162;6.788;2023-08-24T04:33:34;16.70;93.00
55634;DHT22;41504;53.162;6.788;2023-08-24T04:36:01;16.70;93.10
55634;DHT22;41504;53.162;6.788;2023-08-24T04:38:28;16.70;93.10
55634;DHT22;41504;53.162;6.788;2023-08-24T04:40:55;16.70;93.10
55634;DHT22;41504;53.162;6.788;2023-08-24T04:43:22;16.70;93.10
55634;DHT22;41504;53.162;6.788;2023-08-24T04:45:53;16.70;93.20
55634;DHT22;41504;53.162;6.788;2023-08-24T04:48:24;16.70;93.50
55634;DHT22;41504;53.162;6.788;2023-08-24T04:50:50;16.70;93.20
55634;DHT22;41504;53.162;6.788;2023-08-24T04:53:17;16.70;93.20
55634;DHT22;41504;53.162;6.788;2023-08-24T04:55:43;16.70;93.30
55634;DHT22;41504;53.162;6.788;2023-08-24T04:58:10;16.70;93.30
55634;DHT22;41504;53.162;6.788;2023-08-24T05:00:39;16.70;93.30
55634;DHT22;41504;53.162;6.788;2023-08-24T05:03:06;16.70;93.30
55634;DHT22;41504;53.162;6.788;2023-08-24T05:05:35;16.70;93.30
55634;DHT22;41504;53.162;6.788;2023-08-24T05:08:03;16.70;93.40
55634;DHT22;41504;53.162;6.788;2023-08-24T05:10:32;16.80;93.40
55634;DHT22;41504;53.162;6.788;2023-08-24T05:12:58;16.80;93.40
55634;DHT22;41504;53.162;6.788;2023-08-24T05:15:24;16.80;93.40
55634;DHT22;41504;53.162;6.788;2023-08-24T05:17:50;16.80;93.40
55634;DHT22;41504;53.162;6.788;2023-08-24T05:20:19;16.80;93.40
55634;DHT22;41504;53.162;6.788;2023-08-24T05:22:45;16.90;93.40
55634;DHT22;41504;53.162;6.788;2023-08-24T05:25:10;16.90;93.40
55634;DHT22;41504;53.162;6.788;2023-08-24T05:27:40;16.90;93.40
55634;DHT22;41504;53.162;6.788;2023-08-24T05:30:08;16.90;93.40
55634;DHT22;41504;53.162;6.788;2023-08-24T05:32:34;17.00;93.40
55634;DHT22;41504;53.162;6.788;2023-08-24T05:35:05;17.00;93.30
55634;DHT22;41504;53.162;6.788;2023-08-24T05:37:31;17.00;93.30
55634;DHT22;41504;53.162;6.788;2023-08-24T05:39:57;17.00;93.30
55634;DHT22;41504;53.162;6.788;2023-08-24T05:42:22;17.00;93.40
55634;DHT22;41504;53.162;6.788;2023-08-24T05:44:48;17.00;93.40
55634;DHT22;41504;53.162;6.788;2023-08-24T05:47:14;17.00;93.40
55634;DHT22;41504;53.162;6.788;2023-08-24T05:49:39;17.00;93.40
55634;DHT22;41504;53.162;6.788;2023-08-24T05:52:05;17.00;93.40
55634;DHT22;41504;53.162;6.788;2023-08-24T05:54:31;17.00;93.40
55634;DHT22;41504;53.162;6.788;2023-08-24T05:56:58;17.00;93.50
55634;DHT22;41504;53.162;6.788;2023-08-24T05:59:26;17.00;93.50
55634;DHT22;41504;53.162;6.788;2023-08-24T06:01:52;17.00;93.50
55634;DHT22;41504;53.162;6.788;2023-08-24T06:04:18;17.00;93.50
55634;DHT22;41504;53.162;6.788;2023-08-24T06:06:45;17.00;93.50
55634;DHT22;41504;53.162;6.788;2023-08-24T06:09:10;17.10;93.50
55634;DHT22;41504;53.162;6.788;2023-08-24T06:11:42;17.10;93.60
55634;DHT22;41504;53.162;6.788;2023-08-24T06:14:08;17.10;93.50
55634;DHT22;41504;53.162;6.788;2023-08-24T06:16:34;17.20;93.50
55634;DHT22;41504;53.162;6.788;2023-08-24T06:18:59;17.30;93.50
55634;DHT22;41504;53.162;6.788;2023-08-24T06:21:25;17.30;93.40
55634;DHT22;41504;53.162;6.788;2023-08-24T06:23:51;17.30;93.40
55634;DHT22;41504;53.162;6.788;2023-08-24T06:26:17;17.40;93.30
55634;DHT22;41504;53.162;6.788;2023-08-24T06:28:43;17.50;93.30
55634;DHT22;41504;53.162;6.788;2023-08-24T06:31:09;17.50;93.20
55634;DHT22;41504;53.162;6.788;2023-08-24T06:33:35;17.60;93.20
55634;DHT22;41504;53.162;6.788;2023-08-24T06:36:05;17.70;93.10
55634;DHT22;41504;53.162;6.788;2023-08-24T06:38:31;17.70;93.00
55634;DHT22;41504;53.162;6.788;2023-08-24T06:41:00;17.80;92.90
55634;DHT22;41504;53.162;6.788;2023-08-24T06:43:26;17.90;92.80
55634;DHT22;41504;53.162;6.788;2023-08-24T06:45:54;17.90;92.70
55634;DHT22;41504;53.162;6.788;2023-08-24T06:48:20;18.00;92.60
55634;DHT22;41504;53.162;6.788;2023-08-24T06:50:46;18.00;92.50
55634;DHT22;41504;53.162;6.788;2023-08-24T06:53:12;18.10;92.40
55634;DHT22;41504;53.162;6.788;2023-08-24T06:55:37;18.20;92.30
55634;DHT22;41504;53.162;6.788;2023-08-24T06:58:03;18.20;92.20
55634;DHT22;41504;53.162;6.788;2023-08-24T07:00:32;18.20;92.30
55634;DHT22;41504;53.162;6.788;2023-08-24T07:02:59;18.30;92.30
55634;DHT22;41504;53.162;6.788;2023-08-24T07:05:25;18.40;92.30
55634;DHT22;41504;53.162;6.788;2023-08-24T07:07:51;18.50;92.30
55634;DHT22;41504;53.162;6.788;2023-08-24T07:10:17;18.50;92.20
55634;DHT22;41504;53.162;6.788;2023-08-24T07:12:46;18.60;92.20
55634;DHT22;41504;53.162;6.788;2023-08-24T07:15:12;18.70;92.10
55634;DHT22;41504;53.162;6.788;2023-08-24T07:17:39;18.80;92.00
55634;DHT22;41504;53.162;6.788;2023-08-24T07:20:05;18.80;92.00
55634;DHT22;41504;53.162;6.788;2023-08-24T07:22:32;18.90;92.00
55634;DHT22;41504;53.162;6.788;2023-08-24T07:25:00;19.00;91.90
55634;DHT22;41504;53.162;6.788;2023-08-24T07:27:26;19.00;91.90
55634;DHT22;41504;53.162;6.788;2023-08-24T07:29:53;19.10;91.90
55634;DHT22;41504;53.162;6.788;2023-08-24T07:32:19;19.20;91.80
55634;DHT22;41504;53.162;6.788;2023-08-24T07:34:45;19.20;91.70
55634;DHT22;41504;53.162;6.788;2023-08-24T07:37:10;19.30;91.60
55634;DHT22;41504;53.162;6.788;2023-08-24T07:39:42;19.30;91.60
55634;DHT22;41504;53.162;6.788;2023-08-24T07:42:08;19.40;91.50
55634;DHT22;41504;53.162;6.788;2023-08-24T07:44:34;19.50;91.50
55634;DHT22;41504;53.162;6.788;2023-08-24T07:46:59;19.50;91.30
55634;DHT22;41504;53.162;6.788;2023-08-24T07:49:25;19.60;91.30
55634;DHT22;41504;53.162;6.788;2023-08-24T07:51:51;19.70;91.20
55634;DHT22;41504;53.162;6.788;2023-08-24T07:54:16;19.70;91.10
55634;DHT22;41504;53.162;6.788;2023-08-24T07:56:42;19.80;91.10
55634;DHT22;41504;53.162;6.788;2023-08-24T07:59:08;19.90;90.90
55634;DHT22;41504;53.162;6.788;2023-08-24T08:01:34;20.00;90.90
55634;DHT22;41504;53.162;6.788;2023-08-24T08:03:59;20.10;90.80
55634;DHT22;41504;53.162;6.788;2023-08-24T08:06:25;20.20;90.70
55634;DHT22;41504;53.162;6.788;2023-08-24T08:08:52;20.30;90.60
55634;DHT22;41504;53.162;6.788;2023-08-24T08:11:18;20.30;90.50
55634;DHT22;41504;53.162;6.788;2023-08-24T08:13:44;20.40;90.20
55634;DHT22;41504;53.162;6.788;2023-08-24T08:16:10;20.50;90.30
55634;DHT22;41504;53.162;6.788;2023-08-24T08:18:36;20.60;90.00
55634;DHT22;41504;53.162;6.788;2023-08-24T08:21:14;20.60;89.80
55634;DHT22;41504;53.162;6.788;2023-08-24T08:23:40;20.70;89.50
55634;DHT22;41504;53.162;6.788;2023-08-24T08:26:10;20.70;89.00
55634;DHT22;41504;53.162;6.788;2023-08-24T08:28:39;20.80;88.50
55634;DHT22;41504;53.162;6.788;2023-08-24T08:31:08;20.90;88.30
55634;DHT22;41504;53.162;6.788;2023-08-24T08:33:34;21.00;88.00
55634;DHT22;41504;53.162;6.788;2023-08-24T08:36:00;21.00;87.50
55634;DHT22;41504;53.162;6.788;2023-08-24T08:38:25;21.10;87.50
55634;DHT22;41504;53.162;6.788;2023-08-24T08:40:53;21.10;87.40
55634;DHT22;41504;53.162;6.788;2023-08-24T08:43:24;21.10;87.10
55634;DHT22;41504;53.162;6.788;2023-08-24T08:45:51;21.20;86.90
55634;DHT22;41504;53.162;6.788;2023-08-24T08:48:20;21.30;86.40
55634;DHT22;41504;53.162;6.788;2023-08-24T08:50:51;21.40;86.30
55634;DHT22;41504;53.162;6.788;2023-08-24T08:53:21;21.50;86.40
55634;DHT22;41504;53.162;6.788;2023-08-24T08:55:47;21.50;86.20
55634;DHT22;41504;53.162;6.788;2023-08-24T08:58:13;21.50;86.10
55634;DHT22;41504;53.162;6.788;2023-08-24T09:00:39;21.60;85.90
55634;DHT22;41504;53.162;6.788;2023-08-24T09:03:08;21.70;85.50
55634;DHT22;41504;53.162;6.788;2023-08-24T09:05:39;21.80;85.20
55634;DHT22;41504;53.162;6.788;2023-08-24T09:08:05;21.90;84.80
55634;DHT22;41504;53.162;6.788;2023-08-24T09:10:32;22.00;84.70
55634;DHT22;41504;53.162;6.788;2023-08-24T09:12:57;22.10;84.90
55634;DHT22;41504;53.162;6.788;2023-08-24T09:15:26;22.10;84.70
55634;DHT22;41504;53.162;6.788;2023-08-24T09:17:54;22.20;83.90
55634;DHT22;41504;53.162;6.788;2023-08-24T09:20:20;22.30;83.80
55634;DHT22;41504;53.162;6.788;2023-08-24T09:22:46;22.30;83.50
55634;DHT22;41504;53.162;6.788;2023-08-24T09:25:11;22.20;83.20
55634;DHT22;41504;53.162;6.788;2023-08-24T09:27:37;22.20;83.30
55634;DHT22;41504;53.162;6.788;2023-08-24T09:30:04;22.20;83.30
55634;DHT22;41504;53.162;6.788;2023-08-24T09:32:31;22.20;83.00
55634;DHT22;41504;53.162;6.788;2023-08-24T09:35:06;22.20;82.90
55634;DHT22;41504;53.162;6.788;2023-08-24T09:37:34;22.20;82.50
55634;DHT22;41504;53.162;6.788;2023-08-24T09:40:05;22.20;82.90
55634;DHT22;41504;53.162;6.788;2023-08-24T09:42:38;22.20;83.00
55634;DHT22;41504;53.162;6.788;2023-08-24T09:45:06;22.20;83.50
55634;DHT22;41504;53.162;6.788;2023-08-24T09:47:39;22.20;83.50
55634;DHT22;41504;53.162;6.788;2023-08-24T09:50:05;22.30;83.60
55634;DHT22;41504;53.162;6.788;2023-08-24T09:52:37;22.30;83.60
55634;DHT22;41504;53.162;6.788;2023-08-24T09:55:08;22.30;83.60
55634;DHT22;41504;53.162;6.788;2023-08-24T09:57:38;22.40;83.40
55634;DHT22;41504;53.162;6.788;2023-08-24T10:00:11;22.40;83.30
55634;DHT22;41504;53.162;6.788;2023-08-24T10:02:50;22.30;83.30
55634;DHT22;41504;53.162;6.788;2023-08-24T10:05:21;22.40;83.70
55634;DHT22;41504;53.162;6.788;2023-08-24T10:07:56;22.40;83.80
55634;DHT22;41504;53.162;6.788;2023-08-24T10:10:26;22.40;83.80
55634;DHT22;41504;53.162;6.788;2023-08-24T10:13:07;22.40;83.50
55634;DHT22;41504;53.162;6.788;2023-08-24T10:15:35;22.40;83.50
55634;DHT22;41504;53.162;6.788;2023-08-24T10:18:02;22.40;83.50
55634;DHT22;41504;53.162;6.788;2023-08-24T10:20:29;22.40;83.60
55634;DHT22;41504;53.162;6.788;2023-08-24T10:22:57;22.40;83.60
55634;DHT22;41504;53.162;6.788;2023-08-24T10:25:24;22.50;83.60
55634;DHT22;41504;53.162;6.788;2023-08-24T10:27:50;22.40;83.60
55634;DHT22;41504;53.162;6.788;2023-08-24T10:30:17;22.50;83.80
55634;DHT22;41504;53.162;6.788;2023-08-24T10:32:45;22.50;83.90
55634;DHT22;41504;53.162;6.788;2023-08-24T10:35:16;22.40;83.80
55634;DHT22;41504;53.162;6.788;2023-08-24T10:37:44;22.50;83.80
55634;DHT22;41504;53.162;6.788;2023-08-24T10:40:13;22.50;83.80
55634;DHT22;41504;53.162;6.788;2023-08-24T10:42:46;22.50;83.80
55634;DHT22;41504;53.162;6.788;2023-08-24T10:45:13;22.40;83.80
55634;DHT22;41504;53.162;6.788;2023-08-24T10:47:45;22.40;83.80
55634;DHT22;41504;53.162;6.788;2023-08-24T10:50:12;22.40;83.90
55634;DHT22;41504;53.162;6.788;2023-08-24T10:52:39;22.40;84.10
55634;DHT22;41504;53.162;6.788;2023-08-24T10:55:26;22.40;84.00
55634;DHT22;41504;53.162;6.788;2023-08-24T10:57:59;22.30;84.00
55634;DHT22;41504;53.162;6.788;2023-08-24T11:00:29;22.30;84.30
55634;DHT22;41504;53.162;6.788;2023-08-24T11:02:56;22.30;84.30
55634;DHT22;41504;53.162;6.788;2023-08-24T11:08:03;22.30;84.50
55634;DHT22;41504;53.162;6.788;2023-08-24T11:13:09;22.30;84.70
55634;DHT22;41504;53.162;6.788;2023-08-24T11:15:41;22.30;84.60
55634;DHT22;41504;53.162;6.788;2023-08-24T11:18:20;22.30;84.70
55634;DHT22;41504;53.162;6.788;2023-08-24T11:21:03;22.30;84.80
55634;DHT22;41504;53.162;6.788;2023-08-24T11:23:29;22.40;85.10
55634;DHT22;41504;53.162;6.788;2023-08-24T11:25:59;22.40;85.00
55634;DHT22;41504;53.162;6.788;2023-08-24T11:28:29;22.50;84.90
55634;DHT22;41504;53.162;6.788;2023-08-24T11:30:56;22.50;84.70
55634;DHT22;41504;53.162;6.788;2023-08-24T11:33:31;22.60;84.70
55634;DHT22;41504;53.162;6.788;2023-08-24T11:35:59;22.60;84.50
55634;DHT22;41504;53.162;6.788;2023-08-24T11:38:34;22.70;84.40
55634;DHT22;41504;53.162;6.788;2023-08-24T11:41:00;22.70;84.00
55634;DHT22;41504;53.162;6.788;2023-08-24T11:43:26;22.80;83.90
55634;DHT22;41504;53.162;6.788;2023-08-24T11:45:54;22.90;83.70
55634;DHT22;41504;53.162;6.788;2023-08-24T11:48:27;22.90;83.60
55634;DHT22;41504;53.162;6.788;2023-08-24T11:50:55;23.00;83.50
55634;DHT22;41504;53.162;6.788;2023-08-24T11:53:22;23.00;83.10
55634;DHT22;41504;53.162;6.788;2023-08-24T11:55:48;23.10;82.60
55634;DHT22;41504;53.162;6.788;2023-08-24T11:58:16;23.10;82.40
55634;DHT22;41504;53.162;6.788;2023-08-24T12:00:43;23.20;82.30
55634;DHT22;41504;53.162;6.788;2023-08-24T12:03:10;23.30;81.90
55634;DHT22;41504;53.162;6.788;2023-08-24T12:05:35;23.40;81.90
55634;DHT22;41504;53.162;6.788;2023-08-24T12:08:05;23.50;81.50
55634;DHT22;41504;53.162;6.788;2023-08-24T12:10:31;23.60;81.50
55634;DHT22;41504;53.162;6.788;2023-08-24T12:13:04;23.70;80.90
55634;DHT22;41504;53.162;6.788;2023-08-24T12:15:36;23.70;80.30
55634;DHT22;41504;53.162;6.788;2023-08-24T12:18:12;23.70;80.20
55634;DHT22;41504;53.162;6.788;2023-08-24T12:20:38;23.70;80.10
55634;DHT22;41504;53.162;6.788;2023-08-24T12:23:03;23.80;80.20
55634;DHT22;41504;53.162;6.788;2023-08-24T12:25:29;23.80;80.30
55634;DHT22;41504;53.162;6.788;2023-08-24T12:28:11;23.80;80.20
55634;DHT22;41504;53.162;6.788;2023-08-24T12:30:53;23.80;80.20
55634;DHT22;41504;53.162;6.788;2023-08-24T12:33:26;23.80;80.10
55634;DHT22;41504;53.162;6.788;2023-08-24T12:35:58;23.90;79.90
55634;DHT22;41504;53.162;6.788;2023-08-24T12:38:25;23.90;79.80
55634;DHT22;41504;53.162;6.788;2023-08-24T12:40:52;23.90;79.60
55634;DHT22;41504;53.162;6.788;2023-08-24T12:43:18;23.80;79.40
55634;DHT22;41504;53.162;6.788;2023-08-24T12:45:44;23.80;79.40
55634;DHT22;41504;53.162;6.788;2023-08-24T12:48:10;23.80;79.70
55634;DHT22;41504;53.162;6.788;2023-08-24T12:50:38;23.80;80.00
55634;DHT22;41504;53.162;6.788;2023-08-24T12:53:04;23.80;80.10
55634;DHT22;41504;53.162;6.788;2023-08-24T12:55:33;23.80;80.10
55634;DHT22;41504;53.162;6.788;2023-08-24T12:57:59;23.80;80.10
55634;DHT22;41504;53.162;6.788;2023-08-24T13:00:25;23.80;80.20
55634;DHT22;41504;53.162;6.788;2023-08-24T13:02:52;23.90;80.30
55634;DHT22;41504;53.162;6.788;2023-08-24T13:05:21;23.90;80.10
55634;DHT22;41504;53.162;6.788;2023-08-24T13:07:47;23.90;80.00
55634;DHT22;41504;53.162;6.788;2023-08-24T13:10:13;23.80;80.00
55634;DHT22;41504;53.162;6.788;2023-08-24T13:12:39;23.80;80.20
55634;DHT22;41504;53.162;6.788;2023-08-24T13:15:06;23.80;80.60
55634;DHT22;41504;53.162;6.788;2023-08-24T13:17:33;23.80;80.70
55634;DHT22;41504;53.162;6.788;2023-08-24T13:19:59;23.80;81.00
55634;DHT22;41504;53.162;6.788;2023-08-24T13:22:25;23.80;81.10
55634;DHT22;41504;53.162;6.788;2023-08-24T13:24:50;23.80;81.20
55634;DHT22;41504;53.162;6.788;2023-08-24T13:27:16;23.70;81.10
55634;DHT22;41504;53.162;6.788;2023-08-24T13:29:42;23.70;81.30
55634;DHT22;41504;53.162;6.788;2023-08-24T13:32:07;23.70;81.20
55634;DHT22;41504;53.162;6.788;2023-08-24T13:34:33;23.80;81.40
55634;DHT22;41504;53.162;6.788;2023-08-24T13:36:59;23.80;81.30
55634;DHT22;41504;53.162;6.788;2023-08-24T13:39:28;23.80;81.10
55634;DHT22;41504;53.162;6.788;2023-08-24T13:41:55;23.80;81.20
55634;DHT22;41504;53.162;6.788;2023-08-24T13:44:22;23.80;81.10
55634;DHT22;41504;53.162;6.788;2023-08-24T13:46:47;23.70;80.80
55634;DHT22;41504;53.162;6.788;2023-08-24T13:49:13;23.70;81.00
55634;DHT22;41504;53.162;6.788;2023-08-24T13:51:39;23.60;81.00
55634;DHT22;41504;53.162;6.788;2023-08-24T13:54:13;23.70;81.00
55634;DHT22;41504;53.162;6.788;2023-08-24T13:56:47;23.70;80.90
55634;DHT22;41504;53.162;6.788;2023-08-24T13:59:15;23.70;81.10
55634;DHT22;41504;53.162;6.788;2023-08-24T14:01:41;23.60;81.10
55634;DHT22;41504;53.162;6.788;2023-08-24T14:04:07;23.60;81.20
55634;DHT22;41504;53.162;6.788;2023-08-24T14:06:34;23.60;80.90
55634;DHT22;41504;53.162;6.788;2023-08-24T14:09:04;23.60;80.90
55634;DHT22;41504;53.162;6.788;2023-08-24T14:11:30;23.70;80.90
55634;DHT22;41504;53.162;6.788;2023-08-24T14:13:56;23.80;80.70
55634;DHT22;41504;53.162;6.788;2023-08-24T14:16:22;23.90;80.20
55634;DHT22;41504;53.162;6.788;2023-08-24T14:18:51;24.00;80.00
55634;DHT22;41504;53.162;6.788;2023-08-24T14:21:18;24.00;79.80
55634;DHT22;41504;53.162;6.788;2023-08-24T14:23:46;24.00;79.50
55634;DHT22;41504;53.162;6.788;2023-08-24T14:26:11;24.10;79.30
55634;DHT22;41504;53.162;6.788;2023-08-24T14:28:49;24.10;79.20
55634;DHT22;41504;53.162;6.788;2023-08-24T14:31:18;24.10;79.20
55634;DHT22;41504;53.162;6.788;2023-08-24T14:33:44;24.00;79.20
55634;DHT22;41504;53.162;6.788;2023-08-24T14:36:10;24.00;79.30
55634;DHT22;41504;53.162;6.788;2023-08-24T14:38:38;23.90;79.30
55634;DHT22;41504;53.162;6.788;2023-08-24T14:41:05;23.90;79.40
55634;DHT22;41504;53.162;6.788;2023-08-24T14:43:31;23.80;79.60
55634;DHT22;41504;53.162;6.788;2023-08-24T14:45:56;23.80;79.70
55634;DHT22;41504;53.162;6.788;2023-08-24T14:48:22;23.70;79.90
55634;DHT22;41504;53.162;6.788;2023-08-24T14:50:48;23.70;80.30
55634;DHT22;41504;53.162;6.788;2023-08-24T14:53:14;23.70;80.40
55634;DHT22;41504;53.162;6.788;2023-08-24T14:55:40;23.70;80.70
55634;DHT22;41504;53.162;6.788;2023-08-24T14:58:09;23.70;81.00
55634;DHT22;41504;53.162;6.788;2023-08-24T15:00:35;23.70;81.20
55634;DHT22;41504;53.162;6.788;2023-08-24T15:03:01;23.70;81.60
55634;DHT22;41504;53.162;6.788;2023-08-24T15:05:27;23.60;82.00
55634;DHT22;41504;53.162;6.788;2023-08-24T15:07:53;23.60;82.30
55634;DHT22;41504;53.162;6.788;2023-08-24T15:10:19;23.50;82.70
55634;DHT22;41504;53.162;6.788;2023-08-24T15:12:48;23.50;83.10
55634;DHT22;41504;53.162;6.788;2023-08-24T15:15:14;23.50;83.60
55634;DHT22;41504;53.162;6.788;2023-08-24T15:17:43;23.50;83.90
55634;DHT22;41504;53.162;6.788;2023-08-24T15:20:13;23.40;84.30
55634;DHT22;41504;53.162;6.788;2023-08-24T15:22:39;23.40;84.80
55634;DHT22;41504;53.162;6.788;2023-08-24T15:25:08;23.40;85.00
55634;DHT22;41504;53.162;6.788;2023-08-24T15:27:35;23.30;85.30
55634;DHT22;41504;53.162;6.788;2023-08-24T15:30:07;23.40;85.60
55634;DHT22;41504;53.162;6.788;2023-08-24T15:32:33;23.30;86.00
55634;DHT22;41504;53.162;6.788;2023-08-24T15:34:59;23.30;85.70
55634;DHT22;41504;53.162;6.788;2023-08-24T15:37:26;23.30;85.90
55634;DHT22;41504;53.162;6.788;2023-08-24T15:39:51;23.30;86.10
55634;DHT22;41504;53.162;6.788;2023-08-24T15:42:17;23.30;86.20
55634;DHT22;41504;53.162;6.788;2023-08-24T15:44:44;23.30;86.40